Egg Harbor, Wisconsin
Current Conditions -  °F | °C
As of 1:15 PM on Sunday 21 Dec 2014 (Local Time) from KSUE Reporting Station
Overcast Overcast  
Wind Chill: 26°   Ceiling: 4300
Heat Index: 36°   Visibility: 10mi
Dew Point: 30°   Wind: 16mph
Humidity: 81%   Direction: 180°S
Pressure: 30.05"   Gusts: 21mph
Location:  45.05°N, 87.3°W
Report Text: KSUE 211915Z AUTO 18014G18KT 10SM OVC043 02/M01 A3005 RMK AO1
Loading
Personal Weather Stations






























Interactive Weather Map New forecast layout! Learn more

10-Day Weather Forecast

Advertisements
Track Severe Weather on mobile